Time;durP1;ratioP1;P1;durP2;ratioP2;P2;SDS_P1;SDS_P2;PMS_P1;PMS_P2;Temp;Humidity;BMP_temperature;BMP_pressure;BME280_temperature;BME280_humidity;BME280_pressure;Samples;Min_cycle;Max_cycle;Signal;HPM_P1;HPM_P2
2022/03/12 00:02:00;;;;;;;34.00;12.60;;;;;;;-0.16;45.64;102334.47;5140377;56;1140932;-68
2022/03/12 00:07:09;;;;;;;41.90;13.57;;;;;;;-0.20;45.85;102332.31;5140760;56;1141018;-71
2022/03/12 00:12:14;;;;;;;35.33;12.63;;;;;;;-0.25;45.95;102330.59;5140370;56;1141051;-69
2022/03/12 00:17:22;;;;;;;38.00;13.63;;;;;;;-0.27;46.11;102327.98;5140597;56;1141088;-69
2022/03/12 00:22:28;;;;;;;39.33;13.80;;;;;;;-0.28;46.25;102324.95;5140495;56;1141043;-69
2022/03/12 00:27:34;;;;;;;40.50;14.53;;;;;;;-0.28;46.43;102322.36;5140389;56;1140858;-71
2022/03/12 00:32:42;;;;;;;42.63;14.40;;;;;;;-0.31;46.76;102334.53;5140436;56;1140990;-69
2022/03/12 00:37:48;;;;;;;36.60;12.73;;;;;;;-0.38;47.20;102328.47;5127352;56;1140920;-70
2022/03/12 00:42:53;;;;;;;43.93;16.50;;;;;;;-0.47;47.92;102329.81;5126544;56;1140853;-69
2022/03/12 00:47:59;;;;;;;39.00;14.00;;;;;;;-0.52;48.05;102326.36;5085442;56;1141006;-71
2022/03/12 00:53:05;;;;;;;40.93;12.90;;;;;;;-0.57;48.18;102334.16;5023404;56;1142774;-69
2022/03/12 00:58:11;;;;;;;38.00;14.78;;;;;;;-0.65;48.35;102335.92;5042821;56;1141276;-71
2022/03/12 01:03:17;;;;;;;41.70;14.77;;;;;;;-0.68;48.34;102329.86;5042841;56;1142305;-71
2022/03/12 01:08:27;;;;;;;32.67;12.88;;;;;;;-0.74;48.44;102336.79;5041398;56;1141085;-70
2022/03/12 01:13:33;;;;;;;36.57;15.03;;;;;;;-0.79;48.66;102323.41;5040779;56;1140881;-70
2022/03/12 01:18:40;;;;;;;34.27;12.83;;;;;;;-0.82;48.64;102326.86;5040970;56;1140823;-69
2022/03/12 01:23:48;;;;;;;33.50;14.63;;;;;;;-0.82;48.73;102324.27;5041147;56;1141106;-71
2022/03/12 01:28:54;;;;;;;38.90;15.03;;;;;;;-0.85;48.78;102330.76;5041275;56;1140831;-68
2022/03/12 01:34:00;;;;;;;36.10;12.77;;;;;;;-0.92;48.73;102327.76;5041521;56;1140843;-70
2022/03/12 01:39:06;;;;;;;31.53;13.37;;;;;;;-0.97;48.85;102322.13;5041319;56;1140866;-69
2022/03/12 01:44:15;;;;;;;35.83;12.97;;;;;;;-0.98;48.89;102324.29;5042123;56;1140937;-69
2022/03/12 01:49:23;;;;;;;34.08;13.53;;;;;;;-1.01;48.96;102317.36;5106311;56;1141142;-69
2022/03/12 01:54:31;;;;;;;36.67;13.73;;;;;;;-1.01;48.82;102312.17;5126258;56;1141416;-69
2022/03/12 01:59:37;;;;;;;36.03;13.60;;;;;;;-1.01;48.74;102313.90;5126354;56;1140922;-69
2022/03/12 02:04:55;;;;;;;28.00;11.53;;;;;;;-1.00;48.55;102307.41;5126182;56;1141244;-71
2022/03/12 02:09:55;;;;;;;38.93;13.77;;;;;;;-1.01;48.47;102300.91;5125042;56;1141306;-70
2022/03/12 02:15:03;;;;;;;44.03;12.27;;;;;;;-0.99;48.42;102307.84;5126267;56;1140896;-71
2022/03/12 02:20:09;;;;;;;31.03;13.13;;;;;;;-1.02;48.34;102301.35;5126783;56;1140980;-68
2022/03/12 02:25:15;;;;;;;31.80;13.87;;;;;;;-1.03;48.42;102300.05;5127269;56;1140917;-69
2022/03/12 02:30:22;;;;;;;35.97;13.10;;;;;;;-1.06;48.42;102299.18;5127081;56;1140961;-71
2022/03/12 02:35:34;;;;;;;41.23;14.40;;;;;;;-1.08;48.50;102296.19;5127090;56;1140952;-70
2022/03/12 02:40:40;;;;;;;32.90;12.37;;;;;;;-1.16;48.52;102287.09;5126948;56;1140907;-70
2022/03/12 02:45:48;;;;;;;41.13;13.13;;;;;;;-1.16;48.64;102284.92;5123222;56;1141153;-68
2022/03/12 02:50:54;;;;;;;30.07;12.67;;;;;;;-1.20;48.80;102280.59;5042949;56;1141128;-71
2022/03/12 02:56:00;;;;;;;35.83;12.47;;;;;;;-1.26;48.88;102281.48;5042875;56;1140992;-68
2022/03/12 03:01:08;;;;;;;33.13;11.37;;;;;;;-1.28;48.78;102278.45;5060046;56;1141000;-69
2022/03/12 03:06:15;;;;;;;36.07;13.13;;;;;;;-1.28;48.86;102288.84;5129378;55;1140827;-69
2022/03/12 03:11:20;;;;;;;30.32;13.35;;;;;;;-1.31;48.99;102289.70;5138682;55;1140850;-68
2022/03/12 03:16:28;;;;;;;33.63;12.27;;;;;;;-1.31;48.99;102289.70;5122993;55;1141146;-70
2022/03/12 03:21:35;;;;;;;37.13;12.73;;;;;;;-1.33;49.01;102284.07;5029748;56;1140726;-71
2022/03/12 03:26:45;;;;;;;35.80;12.03;;;;;;;-1.30;49.10;102282.78;5027104;56;1141118;-71
2022/03/12 03:31:52;;;;;;;28.20;11.40;;;;;;;-1.29;49.04;102281.48;5032345;56;1140857;-71
2022/03/12 03:36:58;;;;;;;36.93;12.53;;;;;;;-1.36;48.99;102276.28;5042549;56;1141031;-69
2022/03/12 03:42:04;;;;;;;29.97;12.60;;;;;;;-1.32;49.28;102279.31;5034111;56;1141058;-72
2022/03/12 03:47:11;;;;;;;35.70;12.30;;;;;;;-1.34;49.47;102274.13;5022471;57;1141151;-70
2022/03/12 03:52:17;;;;;;;29.37;12.77;;;;;;;-1.37;49.76;102269.36;5132024;56;1140991;-70
2022/03/12 03:57:23;;;;;;;38.83;14.57;;;;;;;-1.40;50.17;102264.20;5135801;56;1140783;-70
2022/03/12 04:02:28;;;;;;;30.23;12.23;;;;;;;-1.46;50.09;102258.56;5135379;56;1140895;-68
2022/03/12 04:07:34;;;;;;;37.80;14.57;;;;;;;-1.47;50.26;102257.70;5135333;56;1140800;-70
2022/03/12 04:12:40;;;;;;;34.10;14.57;;;;;;;-1.48;50.35;102249.91;5135288;56;1140843;-69
2022/03/12 04:17:50;;;;;;;51.20;17.95;;;;;;;-1.51;50.51;102261.58;5134686;56;1183976;-71
2022/03/12 04:22:55;;;;;;;41.50;14.10;;;;;;;-1.53;50.67;102258.15;5135500;56;1141018;-71
2022/03/12 04:28:01;;;;;;;36.87;13.63;;;;;;;-1.51;50.66;102256.39;5135780;56;1140731;-69
2022/03/12 04:33:08;;;;;;;32.35;13.13;;;;;;;-1.46;50.66;102250.34;5150854;56;1140961;-70
2022/03/12 04:38:15;;;;;;;37.93;13.43;;;;;;;-1.47;50.49;102246.02;5120056;56;1141301;-71
2022/03/12 04:43:21;;;;;;;30.37;12.30;;;;;;;-1.50;50.53;102243.85;5138357;56;1141161;-69
2022/03/12 04:48:28;;;;;;;49.27;20.97;;;;;;;-1.48;50.48;102244.72;5135026;55;1141150;-68
2022/03/12 04:53:34;;;;;;;44.43;17.23;;;;;;;-1.50;50.34;102239.95;5130952;56;1140980;-71
2022/03/12 04:58:40;;;;;;;35.47;14.57;;;;;;;-1.52;50.26;102243.84;5130829;56;1141004;-71
2022/03/12 05:03:47;;;;;;;38.65;12.47;;;;;;;-1.54;50.21;102242.15;5131001;56;1140854;-71
2022/03/12 05:08:55;;;;;;;27.13;10.10;;;;;;;-1.57;50.18;102240.41;5130994;55;1140959;-68
2022/03/12 05:14:02;;;;;;;31.43;11.90;;;;;;;-1.60;49.93;102239.54;5131289;56;1140812;-69
2022/03/12 05:19:09;;;;;;;33.60;12.50;;;;;;;-1.66;49.96;102231.31;5115912;56;1140761;-70
2022/03/12 05:24:16;;;;;;;27.40;12.00;;;;;;;-1.68;49.98;102233.04;5128704;55;1140885;-69
2022/03/12 05:29:22;;;;;;;28.40;10.97;;;;;;;-1.71;50.03;102234.36;5153414;55;1141228;-71
2022/03/12 05:34:28;;;;;;;27.87;12.23;;;;;;;-1.71;50.30;102236.09;5154789;55;1140943;-69
2022/03/12 05:39:36;;;;;;;32.17;12.80;;;;;;;-1.68;50.42;102238.23;5084926;56;1140959;-70
2022/03/12 05:44:42;;;;;;;36.87;12.70;;;;;;;-1.71;50.51;102242.58;5116509;55;1140961;-68
2022/03/12 05:49:48;;;;;;;25.83;12.73;;;;;;;-1.78;50.67;102239.96;5066190;56;1140900;-68
2022/03/12 05:54:53;;;;;;;36.27;13.40;;;;;;;-1.70;51.04;102240.41;5126636;56;1140963;-69
2022/03/12 06:00:03;;;;;;;30.23;11.50;;;;;;;-1.53;51.09;102227.02;5139067;56;1140900;-71
2022/03/12 06:05:13;;;;;;;36.33;11.60;;;;;;;-1.39;50.71;102220.08;5120033;56;1140878;-70
2022/03/12 06:10:25;;;;;;;25.70;11.12;;;;;;;-1.21;50.99;102223.92;5139063;56;1140928;-71
2022/03/12 06:15:31;;;;;;;32.00;12.18;;;;;;;-1.06;50.13;102213.93;5129865;56;1141015;-70
2022/03/12 06:20:37;;;;;;;31.13;10.70;;;;;;;-0.89;49.64;102211.28;5130237;56;1140907;-67
2022/03/12 06:25:43;;;;;;;35.67;11.17;;;;;;;-0.74;48.79;102208.20;5130038;55;1140878;-69
2022/03/12 06:30:54;;;;;;;35.70;12.03;;;;;;;-0.58;48.46;102207.70;5130669;56;1141085;-70
2022/03/12 06:36:02;;;;;;;28.53;11.80;;;;;;;-0.36;48.32;102203.27;5120660;56;1140897;-70
2022/03/12 06:41:07;;;;;;;43.73;11.50;;;;;;;-0.09;48.16;102203.09;5113630;56;1140902;-68
2022/03/12 06:46:15;;;;;;;30.37;11.53;;;;;;;0.08;46.93;102197.77;5117462;55;1142213;-69
2022/03/12 06:51:20;;;;;;;29.43;11.63;;;;;;;0.26;47.18;102200.66;5112223;56;1139022;-69
2022/03/12 06:56:28;;;;;;;26.90;10.10;;;;;;;0.43;46.89;102199.22;5116504;56;1138764;-67
2022/03/12 07:01:35;;;;;;;30.87;11.37;;;;;;;0.64;46.43;102199.87;5116701;56;1138883;-69
2022/03/12 07:06:42;;;;;;;35.93;13.20;;;;;;;0.84;46.31;102198.81;5112836;56;1139057;-70
2022/03/12 07:11:47;;;;;;;31.53;11.90;;;;;;;0.95;45.87;102203.02;5098272;56;1139013;-71
2022/03/12 07:16:54;;;;;;;40.80;13.38;;;;;;;1.12;45.38;102194.14;5085636;56;1138851;-68
2022/03/12 07:22:01;;;;;;;29.43;13.07;;;;;;;1.38;44.94;102199.45;5089066;55;1138850;-71
2022/03/12 07:27:07;;;;;;;28.73;11.27;;;;;;;1.61;43.10;102197.86;5117804;56;1138847;-68
2022/03/12 07:32:12;;;;;;;28.93;11.17;;;;;;;1.72;43.14;102196.39;5098039;56;1138776;-69
2022/03/12 07:37:20;;;;;;;37.17;11.78;;;;;;;1.89;43.50;102197.02;5113307;56;1138831;-70
2022/03/12 07:42:27;;;;;;;30.15;10.98;;;;;;;2.13;42.81;102197.10;5024163;55;1138845;-71
2022/03/12 07:47:33;;;;;;;31.97;11.67;;;;;;;2.35;41.57;102185.41;5064791;56;1138705;-70
2022/03/12 07:52:39;;;;;;;36.10;13.90;;;;;;;2.55;41.07;102185.06;5059523;56;1138911;-71
2022/03/12 07:57:46;;;;;;;32.83;13.60;;;;;;;2.75;40.81;102189.45;5092389;56;1138769;-70
2022/03/12 08:02:52;;;;;;;43.07;22.63;;;;;;;2.96;40.35;102188.20;5134380;56;1138799;-71
2022/03/12 08:07:58;;;;;;;23.83;10.40;;;;;;;3.23;40.87;102190.70;5065253;56;1138705;-69
2022/03/12 08:13:04;;;;;;;29.37;11.40;;;;;;;3.39;37.66;102188.63;5014886;56;1138808;-70
2022/03/12 08:18:09;;;;;;;29.17;11.33;;;;;;;3.46;38.67;102195.02;5044952;56;1138847;-69
2022/03/12 08:23:16;;;;;;;31.33;10.60;;;;;;;3.62;36.96;102192.08;5140097;56;1138809;-70
2022/03/12 08:28:22;;;;;;;30.30;10.40;;;;;;;3.67;37.09;102187.13;5139977;56;1138677;-69
2022/03/12 08:33:28;;;;;;;17.45;8.70;;;;;;;3.87;37.20;102194.53;5139784;55;1138851;-70
2022/03/12 08:38:36;;;;;;;28.50;11.63;;;;;;;4.12;36.46;102196.15;5139847;55;1136724;-70
2022/03/12 08:43:42;;;;;;;23.23;11.77;;;;;;;4.35;36.92;102188.58;5114436;56;1138690;-69
2022/03/12 08:48:48;;;;;;;28.13;12.67;;;;;;;4.51;37.90;102180.73;5052173;56;1138826;-70
2022/03/12 08:53:53;;;;;;;30.80;13.30;;;;;;;4.77;36.68;102175.24;5034315;57;1138925;-75
2022/03/12 08:58:59;;;;;;;31.43;16.83;;;;;;;4.92;36.61;102172.20;5034189;57;1138857;-72
2022/03/12 09:04:06;;;;;;;38.05;13.05;;;;;;;5.05;36.42;102172.72;5049810;57;1138918;-76
2022/03/12 09:09:14;;;;;;;86.83;37.20;;;;;;;5.19;36.54;102172.76;5080700;56;1138982;-74
2022/03/12 09:14:21;;;;;;;33.53;13.30;;;;;;;5.34;36.83;102167.52;5104606;56;1138795;-76
2022/03/12 09:19:27;;;;;;;35.45;16.27;;;;;;;5.43;35.55;102167.68;5101540;56;1138932;-70
2022/03/12 09:24:34;;;;;;;27.17;13.70;;;;;;;5.48;35.30;102176.28;5034431;56;1138927;-74
2022/03/12 09:29:40;;;;;;;28.27;12.33;;;;;;;5.45;35.81;102173.75;5034261;56;1138862;-73
2022/03/12 09:34:45;;;;;;;33.90;14.13;;;;;;;5.63;34.91;102159.62;5023132;57;1171620;-72
2022/03/12 09:39:52;;;;;;;29.43;11.87;;;;;;;5.80;35.64;102158.23;5024053;56;1138956;-77
2022/03/12 09:44:59;;;;;;;29.73;14.67;;;;;;;5.77;34.61;102153.08;5023519;56;1139192;-75
2022/03/12 09:50:06;;;;;;;42.20;20.37;;;;;;;5.84;35.43;102146.70;5024027;57;1139192;-76
2022/03/12 09:55:12;;;;;;;45.87;21.50;;;;;;;6.07;35.72;102150.81;5031567;56;1139271;-72
2022/03/12 10:00:20;;;;;;;22.90;11.40;;;;;;;6.23;35.14;102149.39;5026296;56;1139089;-77
2022/03/12 10:05:27;;;;;;;41.37;15.43;;;;;;;6.40;32.96;102135.69;5020482;56;1138785;-75
2022/03/12 10:10:34;;;;;;;55.27;14.63;;;;;;;6.56;34.71;102142.13;5042488;56;1139079;-73
2022/03/12 10:15:40;;;;;;;26.07;12.23;;;;;;;6.67;32.69;102134.71;5042706;56;1138904;-71
2022/03/12 10:20:46;;;;;;;30.47;11.73;;;;;;;6.77;32.56;102135.23;5042833;56;1138999;-72
2022/03/12 10:25:52;;;;;;;26.93;10.80;;;;;;;6.87;31.60;102126.58;5042790;56;1138958;-75
2022/03/12 10:30:59;;;;;;;29.70;11.50;;;;;;;6.93;30.33;102126.33;5042958;56;1139054;-72
2022/03/12 10:36:16;;;;;;;20.53;10.33;;;;;;;7.00;30.41;102119.48;5042546;56;1138843;-77
2022/03/12 10:41:24;;;;;;;22.83;10.10;;;;;;;7.15;31.07;102125.09;5027394;56;1148671;-75
2022/03/12 10:46:31;;;;;;;22.60;11.35;;;;;;;7.28;31.91;102117.98;5097145;56;1139207;-71
2022/03/12 10:51:40;;;;;;;33.47;12.07;;;;;;;7.34;29.96;102106.34;5126718;56;1138803;-73
2022/03/12 10:56:56;;;;;;;35.50;14.40;;;;;;;7.53;30.81;102103.84;5060815;56;1138861;-73
2022/03/12 11:02:05;;;;;;;38.47;18.30;;;;;;;7.67;29.57;102093.16;5036093;56;1138844;-74
2022/03/12 11:07:30;;;;;;;63.73;31.33;;;;;;;7.68;29.18;102094.02;5050624;56;1138989;-71
2022/03/12 11:12:37;;;;;;;;;;;;;;;7.75;29.93;102095.05;5045539;57;1138917;-75
2022/03/12 11:17:45;;;;;;;29.03;12.60;;;;;;;7.85;29.85;102091.56;5073301;56;971962;-74
2022/03/12 11:23:13;;;;;;;34.65;15.30;;;;;;;7.88;28.94;102090.13;4891964;58;1136812;-73
2022/03/12 11:28:21;;;;;;;23.38;11.78;;;;;;;7.96;29.83;102095.92;5071358;56;1147898;-75
2022/03/12 11:33:29;;;;;;;25.17;12.43;;;;;;;8.10;27.87;102091.38;5042053;57;1138725;-74
2022/03/12 11:38:35;;;;;;;24.97;11.73;;;;;;;8.12;27.57;102088.23;5042363;57;1139166;-73
2022/03/12 11:43:43;;;;;;;24.67;10.93;;;;;;;8.19;27.71;102086.20;5050608;57;1138660;-74
2022/03/12 11:48:48;;;;;;;21.27;10.53;;;;;;;8.29;27.35;102083.09;5050544;57;1138887;-74
2022/03/12 11:53:55;;;;;;;17.17;8.60;;;;;;;8.33;26.28;102075.95;5049925;56;1138793;-75
2022/03/12 11:59:01;;;;;;;24.63;12.40;;;;;;;8.29;25.68;102072.55;5139906;55;1136609;-74
2022/03/12 12:04:07;;;;;;;137.90;72.87;;;;;;;8.29;26.01;102059.38;5139109;56;1138834;-77
2022/03/12 12:09:13;;;;;;;27.73;11.57;;;;;;;8.45;27.13;102059.59;5109244;56;1140888;-76
2022/03/12 12:14:25;;;;;;;27.07;15.07;;;;;;;8.63;26.26;102060.56;5095022;56;1138728;-73
2022/03/12 12:19:28;;;;;;;26.37;13.48;;;;;;;8.76;26.53;102052.02;5133634;56;1138814;-74
2022/03/12 12:24:39;;;;;;;24.27;11.60;;;;;;;8.81;26.02;102051.81;5055112;56;1138848;-71
2022/03/12 12:29:51;;;;;;;96.27;37.67;;;;;;;8.84;26.10;102043.77;5054759;56;1138799;-78
2022/03/12 12:35:18;;;;;;;24.87;11.43;;;;;;;9.01;26.70;102035.08;5114871;56;1138967;-73
2022/03/12 12:40:36;;;;;;;24.18;13.38;;;;;;;9.13;25.44;102025.25;5133565;55;1139198;-74
2022/03/12 12:46:01;;;;;;;23.27;12.00;;;;;;;9.20;25.53;102016.56;5138669;56;1138946;-74
2022/03/12 12:51:27;;;;;;;21.30;10.00;;;;;;;9.26;24.87;102014.95;5129788;56;1138859;-76
2022/03/12 12:56:37;;;;;;;22.95;9.55;;;;;;;9.33;25.12;102006.65;4931327;58;1138768;-76
2022/03/12 13:01:49;;;;;;;24.70;10.33;;;;;;;9.38;24.40;101998.52;5117873;56;1136715;-73
2022/03/12 13:06:55;;;;;;;19.13;9.57;;;;;;;9.40;25.26;101998.83;5109556;56;1138856;-74
2022/03/12 13:12:06;;;;;;;22.83;9.83;;;;;;;9.55;25.34;101982.69;5100348;56;1136701;-73
2022/03/12 13:17:36;;;;;;;19.20;8.60;;;;;;;9.64;25.46;101987.50;5094971;57;1136674;-73
2022/03/12 13:22:46;;;;;;;27.70;13.87;;;;;;;9.70;24.65;101977.95;5094213;57;1136762;-73
2022/03/12 13:28:01;;;;;;;25.07;10.07;;;;;;;9.77;25.75;101975.41;5093655;57;1138806;-73
2022/03/12 13:33:11;;;;;;;19.37;9.77;;;;;;;9.86;25.66;101961.71;5086209;57;1139000;-73
2022/03/12 13:38:23;;;;;;;22.40;10.14;;;;;;;9.99;25.45;101963.71;5102179;57;1139009;-75
2022/03/12 13:43:30;;;;;;;18.47;9.77;;;;;;;9.98;24.47;101960.22;5058233;56;1145076;-75
2022/03/12 13:48:35;;;;;;;35.23;11.00;;;;;;;9.98;24.52;101963.32;5043417;56;1138852;-76
2022/03/12 13:53:42;;;;;;;19.40;9.87;;;;;;;9.96;23.29;101961.22;5034858;56;1140832;-75
2022/03/12 13:58:48;;;;;;;21.00;8.27;;;;;;;9.97;24.13;101961.61;4975692;57;1138759;-74
2022/03/12 14:03:54;;;;;;;21.93;10.10;;;;;;;9.87;23.54;101958.14;5006508;57;1138777;-74
2022/03/12 14:09:04;;;;;;;37.03;16.67;;;;;;;9.93;24.61;101956.95;5021343;57;1140938;-75
2022/03/12 14:14:13;;;;;;;37.17;15.97;;;;;;;9.97;24.45;101958.97;5021350;57;1140758;-75
2022/03/12 14:19:22;;;;;;;30.37;14.20;;;;;;;9.98;23.93;101948.31;5040683;56;1141060;-75
2022/03/12 14:24:36;;;;;;;24.75;9.75;;;;;;;10.03;24.38;101952.91;5076293;56;1140863;-72
2022/03/12 14:29:44;;;;;;;21.97;11.33;;;;;;;10.05;24.47;101947.55;5100004;56;1141004;-73
2022/03/12 14:34:49;;;;;;;21.77;11.27;;;;;;;10.09;24.68;101939.81;5106277;56;1142832;-73
2022/03/12 14:39:55;;;;;;;25.97;11.03;;;;;;;10.15;25.42;101943.47;5106236;56;1142894;-74
2022/03/12 14:45:01;;;;;;;26.77;12.53;;;;;;;10.06;24.00;101938.68;5104871;56;1142976;-76
2022/03/12 14:50:09;;;;;;;25.00;12.67;;;;;;;9.98;23.97;101938.22;5005323;57;1142889;-75
2022/03/12 14:55:17;;;;;;;59.77;23.20;;;;;;;10.01;25.24;101943.34;5080512;56;1261759;-74
2022/03/12 15:00:24;;;;;;;25.00;11.08;;;;;;;10.01;25.15;101929.66;5088898;56;1188760;-74
2022/03/12 15:05:31;;;;;;;31.60;17.57;;;;;;;10.07;24.93;101928.03;5116644;56;1202105;-73
2022/03/12 15:10:38;;;;;;;24.97;12.40;;;;;;;10.04;24.63;101928.19;5110026;56;1143254;-75
2022/03/12 15:15:44;;;;;;;17.23;9.47;;;;;;;9.97;24.39;101929.43;5116968;56;1143132;-77
2022/03/12 15:20:52;;;;;;;38.67;17.83;;;;;;;9.84;24.10;101921.30;5117918;55;1139234;-73
2022/03/12 15:26:13;;;;;;;22.87;11.23;;;;;;;9.82;24.49;101920.98;5109484;56;1141040;-73
2022/03/12 15:31:18;;;;;;;31.93;14.37;;;;;;;9.83;24.49;101914.30;5067730;56;1141279;-74
2022/03/12 15:36:26;;;;;;;29.87;14.37;;;;;;;9.86;24.95;101907.54;5109525;55;1140998;-73
2022/03/12 15:41:34;;;;;;;33.73;16.42;;;;;;;9.85;25.77;101909.80;5087786;56;1141101;-73
2022/03/12 15:46:41;;;;;;;30.47;12.30;;;;;;;9.81;25.17;101906.91;5060228;56;1140964;-72
2022/03/12 15:51:47;;;;;;;53.30;25.30;;;;;;;9.74;24.49;101913.47;5117590;56;1141000;-74
2022/03/12 15:56:53;;;;;;;29.30;13.97;;;;;;;9.72;25.52;101911.84;5112265;56;1141129;-74
2022/03/12 16:01:59;;;;;;;54.17;22.37;;;;;;;9.99;25.97;101916.14;5117505;56;1140934;-73
2022/03/12 16:07:05;;;;;;;66.37;28.63;;;;;;;11.24;24.91;101906.08;5117652;56;1140927;-73
2022/03/12 16:12:11;;;;;;;44.67;22.53;;;;;;;12.31;24.69;101914.59;5112943;56;1143306;-73
2022/03/12 16:17:17;;;;;;;232.87;104.37;;;;;;;12.72;23.65;101905.78;5106487;56;1143067;-75
2022/03/12 16:22:23;;;;;;;494.70;216.60;;;;;;;12.00;23.82;101913.92;5107432;56;1147182;-75
2022/03/12 16:27:29;;;;;;;34.73;17.93;;;;;;;11.07;24.19;101910.17;5115033;56;1155816;-73
2022/03/12 16:32:35;;;;;;;53.92;21.40;;;;;;;10.29;25.09;101911.88;5084379;56;1143263;-75
2022/03/12 16:37:41;;;;;;;63.93;28.43;;;;;;;9.73;25.56;101903.83;5080703;56;1140863;-73
2022/03/12 16:42:48;;;;;;;124.40;70.07;;;;;;;9.31;26.43;101896.79;5126772;56;1138988;-73
2022/03/12 16:47:58;;;;;;;53.50;19.00;;;;;;;9.01;27.04;101894.72;5100644;56;1141019;-74
2022/03/12 16:53:02;;;;;;;37.37;18.00;;;;;;;8.72;27.30;101893.95;5088661;56;1139087;-76
2022/03/12 16:58:07;;;;;;;87.43;35.00;;;;;;;8.51;27.89;101891.89;5078613;56;1138763;-73
2022/03/12 17:03:14;;;;;;;78.47;30.77;;;;;;;8.36;28.31;101891.30;5047121;56;1139174;-73
2022/03/12 17:08:20;;;;;;;64.80;27.65;;;;;;;8.17;28.34;101890.39;4989164;56;1138865;-73
2022/03/12 17:13:27;;;;;;;90.33;34.43;;;;;;;7.99;28.63;101888.13;5042792;56;1138811;-76
2022/03/12 17:18:33;;;;;;;123.10;47.45;;;;;;;7.91;29.02;101896.84;5042764;56;1138908;-74
2022/03/12 17:23:41;;;;;;;119.55;49.33;;;;;;;7.79;29.23;101892.13;5042307;56;1140979;-74
2022/03/12 17:28:46;;;;;;;145.83;57.90;;;;;;;7.69;29.49;101885.07;5043394;56;1141003;-77
2022/03/12 17:33:53;;;;;;;155.80;66.70;;;;;;;7.58;29.77;101886.01;5089780;56;1140938;-70
2022/03/12 17:39:00;;;;;;;103.80;52.13;;;;;;;7.50;30.22;101890.27;5110825;55;1140972;-70
2022/03/12 17:44:06;;;;;;;71.70;29.93;;;;;;;7.44;30.37;101889.70;5125757;56;1140874;-70
2022/03/12 17:49:14;;;;;;;82.40;27.83;;;;;;;7.30;30.52;101893.77;5126668;56;1138680;-71
2022/03/12 17:54:19;;;;;;;53.00;21.20;;;;;;;7.17;30.65;101892.58;5127315;56;1138703;-71
2022/03/12 17:59:25;;;;;;;55.20;20.33;;;;;;;7.03;30.84;101901.47;5049883;56;1138683;-68
2022/03/12 18:04:31;;;;;;;64.35;22.40;;;;;;;6.92;31.17;101908.48;5043330;56;1138685;-70
2022/03/12 18:09:37;;;;;;;74.00;30.15;;;;;;;6.85;31.64;101893.89;5116113;56;1138878;-71
2022/03/12 18:14:43;;;;;;;168.47;53.50;;;;;;;6.79;31.83;101895.89;5102618;56;1138697;-71
2022/03/12 18:19:49;;;;;;;148.87;45.23;;;;;;;6.70;32.11;101895.36;5118585;56;1140829;-71
2022/03/12 18:24:55;;;;;;;185.17;61.47;;;;;;;6.64;32.39;101893.41;5049166;55;1140801;-72
2022/03/12 18:30:01;;;;;;;155.33;57.53;;;;;;;6.59;32.66;101894.04;4960694;58;1140819;-72
2022/03/12 18:35:07;;;;;;;127.10;49.43;;;;;;;6.53;32.86;101889.91;4945443;57;1140942;-71
2022/03/12 18:40:15;;;;;;;103.47;37.10;;;;;;;6.44;33.07;101889.38;4973414;57;1140829;-71
2022/03/12 18:45:23;;;;;;;80.53;30.13;;;;;;;6.33;33.33;101891.97;4995035;56;1140844;-71
2022/03/12 18:50:30;;;;;;;83.43;29.87;;;;;;;6.20;33.45;101893.81;5021654;57;1139066;-73
2022/03/12 18:55:37;;;;;;;110.60;44.63;;;;;;;6.07;33.76;101892.10;4892217;56;1148627;-74
2022/03/12 19:00:43;;;;;;;277.70;113.37;;;;;;;5.95;33.94;101890.79;4958818;57;1140964;-73
2022/03/12 19:05:53;;;;;;;233.73;106.80;;;;;;;5.82;34.12;101886.83;5092288;56;1143105;-73
2022/03/12 19:10:58;;;;;;;91.87;43.90;;;;;;;5.69;34.21;101884.25;5117881;55;1142990;-72
2022/03/12 19:16:09;;;;;;;51.13;24.40;;;;;;;5.55;34.40;101887.36;5069321;56;1138930;-73
2022/03/12 19:21:16;;;;;;;93.43;40.37;;;;;;;5.50;34.61;101893.70;5086596;56;1138885;-73
2022/03/12 19:26:21;;;;;;;129.53;56.37;;;;;;;5.40;34.76;101894.45;5075448;56;1138845;-73
2022/03/12 19:31:28;;;;;;;119.03;49.00;;;;;;;5.34;34.98;101886.81;5093663;56;1152196;-73
2022/03/12 19:36:36;;;;;;;72.73;33.17;;;;;;;5.30;35.21;101889.98;5023083;55;1141156;-73
2022/03/12 19:41:44;;;;;;;78.77;34.30;;;;;;;5.22;35.18;101892.45;4990594;57;1138877;-73
2022/03/12 19:46:50;;;;;;;72.43;30.40;;;;;;;5.17;35.42;101886.52;5015228;57;1139009;-72
2022/03/12 19:51:58;;;;;;;56.70;25.77;;;;;;;5.11;35.59;101874.45;5015123;56;1138921;-70
2022/03/12 19:57:06;;;;;;;73.90;28.30;;;;;;;5.01;35.74;101873.06;5015918;56;1139140;-72
2022/03/12 20:02:13;;;;;;;82.53;28.70;;;;;;;4.92;35.95;101878.13;5016510;57;1138996;-71
2022/03/12 20:07:21;;;;;;;90.17;34.23;;;;;;;4.90;36.17;101881.70;4973136;57;1138786;-71
2022/03/12 20:12:26;;;;;;;148.77;48.43;;;;;;;4.88;36.38;101879.61;4981698;56;1138835;-70
2022/03/12 20:17:32;;;;;;;159.27;55.20;;;;;;;4.83;36.65;101876.27;5044206;56;1141324;-72
2022/03/12 20:22:43;;;;;;;146.20;49.75;;;;;;;4.71;36.93;101878.84;4983821;56;1141217;-71
2022/03/12 20:27:48;;;;;;;121.30;43.83;;;;;;;4.58;37.38;101876.20;5013404;57;1141311;-70
2022/03/12 20:32:54;;;;;;;122.07;47.10;;;;;;;4.47;37.70;101876.51;5022418;57;1179572;-71
2022/03/12 20:38:00;;;;;;;180.97;63.80;;;;;;;4.41;38.23;101879.78;5022783;57;1141124;-71
2022/03/12 20:43:06;;;;;;;135.40;49.23;;;;;;;4.31;38.84;101881.80;5023272;56;1141033;-71
2022/03/12 20:48:12;;;;;;;148.80;63.52;;;;;;;4.22;39.20;101884.70;5023051;56;1141478;-71
2022/03/12 20:53:20;;;;;;;203.30;74.40;;;;;;;4.08;39.53;101879.88;5023673;57;1141147;-72
2022/03/12 20:58:27;;;;;;;154.93;52.50;;;;;;;4.00;39.99;101888.83;5040233;57;1140994;-71
2022/03/12 21:03:32;;;;;;;139.03;48.63;;;;;;;3.83;41.39;101889.30;5024256;57;1141160;-71
2022/03/12 21:08:38;;;;;;;107.78;40.63;;;;;;;3.66;42.22;101882.40;4972891;57;1140929;-69
2022/03/12 21:13:47;;;;;;;372.63;110.85;;;;;;;3.44;42.17;101876.88;5020400;57;1140994;-67
2022/03/12 21:18:52;;;;;;;446.07;114.07;;;;;;;3.30;42.38;101877.68;4963467;57;1143064;-67
2022/03/12 21:23:58;;;;;;;430.83;108.13;;;;;;;3.18;43.00;101877.11;4940293;57;1143278;-68
2022/03/12 21:29:05;;;;;;;286.90;73.53;;;;;;;3.06;42.92;101872.16;4945321;58;1143144;-69
2022/03/12 21:34:12;;;;;;;385.00;101.83;;;;;;;3.02;43.16;101880.14;4998960;57;1140885;-69
2022/03/12 21:39:19;;;;;;;391.27;100.73;;;;;;;2.98;43.41;101870.20;4821350;59;1143163;-68
2022/03/12 21:44:25;;;;;;;404.30;109.43;;;;;;;2.94;43.62;101876.39;4866511;58;1143258;-69
2022/03/12 21:49:31;;;;;;;250.13;73.43;;;;;;;2.82;43.96;101887.14;4863070;59;1144291;-70
2022/03/12 21:54:36;;;;;;;265.23;83.55;;;;;;;2.74;44.21;101887.34;4855190;59;1141063;-68
2022/03/12 21:59:42;;;;;;;211.32;61.13;;;;;;;2.70;44.70;101884.37;4943717;58;1141111;-69
2022/03/12 22:04:48;;;;;;;161.27;50.30;;;;;;;2.65;44.19;101882.31;4943464;58;1141089;-70
2022/03/12 22:09:54;;;;;;;179.07;55.20;;;;;;;2.64;44.06;101865.36;4943543;58;1140876;-72
2022/03/12 22:14:59;;;;;;;178.03;67.17;;;;;;;2.67;44.16;101867.47;4943028;58;1141018;-71
2022/03/12 22:20:06;;;;;;;125.38;50.25;;;;;;;2.65;43.95;101871.86;4943637;58;1141111;-72
2022/03/12 22:25:12;;;;;;;111.57;41.83;;;;;;;2.63;43.99;101863.64;4943511;58;1140961;-70
2022/03/12 22:30:19;;;;;;;133.93;49.97;;;;;;;2.61;43.98;101868.04;4943379;58;1140841;-71
2022/03/12 22:35:26;;;;;;;127.97;51.17;;;;;;;2.61;44.00;101862.38;4943633;58;1140881;-71
2022/03/12 22:40:31;;;;;;;110.07;42.60;;;;;;;2.58;44.10;101853.33;4937890;58;1140862;-71
2022/03/12 22:45:38;;;;;;;108.72;38.15;;;;;;;2.56;44.09;101849.89;4937998;58;1141058;-69
2022/03/12 22:50:44;;;;;;;82.80;32.50;;;;;;;2.51;44.28;101838.68;4940652;58;1140865;-70